Time;durP1;ratioP1;P1;durP2;ratioP2;P2;SDS_P1;SDS_P2;PMS_P1;PMS_P2;Temp;Humidity;BMP_temperature;BMP_pressure;BME280_temperature;BME280_humidity;BME280_pressure;Samples;Min_cycle;Max_cycle;Signal;HPM_P1;HPM_P2
2021/07/27 00:00:28;;;;;;;16.33;9.60;;;;;;;23.29;64.14;98605.23;261487;1093;115093;-72
2021/07/27 00:05:52;;;;;;;14.00;9.47;;;;;;;23.24;64.23;98600.38;261645;1092;114607;-73
2021/07/27 00:11:11;;;;;;;16.30;10.17;;;;;;;23.24;64.87;98611.23;262293;1091;114231;-73
2021/07/27 00:16:19;;;;;;;19.30;10.60;;;;;;;23.23;64.84;98617.66;261700;1092;115515;-69
2021/07/27 00:21:26;;;;;;;15.53;10.37;;;;;;;23.20;64.91;98644.35;261901;1092;114559;-68
2021/07/27 00:26:32;;;;;;;14.40;9.40;;;;;;;23.19;64.68;98697.81;261770;1092;114700;-70
2021/07/27 00:31:41;;;;;;;11.90;7.90;;;;;;;23.08;64.59;98726.25;261795;1092;114501;-72
2021/07/27 00:36:48;;;;;;;12.43;7.40;;;;;;;22.97;64.61;98748.41;261795;1092;114462;-72
2021/07/27 00:41:58;;;;;;;8.67;6.07;;;;;;;22.90;64.47;98718.41;261761;1092;115085;-72
2021/07/27 00:47:03;;;;;;;7.97;5.53;;;;;;;22.78;64.25;98740.70;263017;1092;115252;-69
2021/07/27 00:52:08;;;;;;;13.03;5.78;;;;;;;22.63;64.14;98710.81;262516;1092;115433;-66
2021/07/27 00:57:11;;;;;;;8.33;5.30;;;;;;;22.52;64.33;98684.08;263344;1092;114870;-71
2021/07/27 01:02:15;;;;;;;9.90;5.23;;;;;;;22.39;64.35;98661.13;263761;1093;114887;-72
2021/07/27 01:07:21;;;;;;;11.38;5.13;;;;;;;22.31;64.52;98638.64;262970;1092;115447;-72
2021/07/27 01:12:28;;;;;;;7.20;4.33;;;;;;;22.20;64.31;98627.19;261811;1092;114566;-75
2021/07/27 01:17:34;;;;;;;5.47;3.57;;;;;;;22.08;64.36;98603.34;261842;1092;115355;-77
2021/07/27 01:44:33;;;;;;;7.20;4.20;;;;;;;21.54;65.12;98614.16;262257;1093;114975;-70
2021/07/27 01:49:44;;;;;;;5.70;4.00;;;;;;;21.50;65.47;98638.00;261595;1093;114344;-69
2021/07/27 01:54:55;;;;;;;4.93;3.50;;;;;;;21.46;65.53;98647.50;261727;1092;115194;-69
2021/07/27 02:00:08;;;;;;;7.70;4.10;;;;;;;21.47;65.76;98669.00;261875;1092;114776;-70
2021/07/27 02:05:21;;;;;;;6.28;4.60;;;;;;;21.49;65.58;98694.03;261339;1091;115121;-70
2021/07/27 02:10:30;;;;;;;6.00;4.00;;;;;;;21.54;66.00;98711.64;261498;1093;115092;-69
2021/07/27 02:15:41;;;;;;;4.60;3.80;;;;;;;21.52;65.92;98722.63;261858;1091;114490;-69
2021/07/27 02:20:48;;;;;;;5.85;3.80;;;;;;;21.55;66.04;98748.53;261721;1092;115002;-71
2021/07/27 02:26:04;;;;;;;6.65;4.00;;;;;;;21.61;66.13;98759.52;261418;1091;114777;-69
2021/07/27 02:31:31;;;;;;;7.40;3.90;;;;;;;21.65;66.07;98796.06;261403;1092;115014;-69
2021/07/27 02:36:39;;;;;;;5.97;4.13;;;;;;;21.67;66.06;98844.64;261727;1093;118020;-68
2021/07/27 02:41:45;;;;;;;7.07;4.10;;;;;;;21.66;66.17;98824.83;261573;1092;114901;-67
2021/07/27 02:46:52;;;;;;;8.45;4.20;;;;;;;21.68;66.20;98830.09;261634;1092;114939;-66
2021/07/27 02:52:05;;;;;;;7.90;5.30;;;;;;;21.72;66.33;98786.23;261893;1093;114891;-67
2021/07/27 02:57:13;;;;;;;7.30;5.47;;;;;;;21.71;66.53;98795.39;262206;1090;114545;-68
2021/07/27 03:02:30;;;;;;;9.10;6.20;;;;;;;21.67;66.65;98780.50;261830;1092;114839;-69
2021/07/27 03:12:55;;;;;;;;;;;;;;;21.59;67.18;98737.16;261602;1092;114657;-67
2021/07/27 03:18:04;;;;;;;11.47;6.00;;;;;;;21.60;67.63;98736.17;261707;1092;103417;-69
2021/07/27 03:23:21;;;;;;;12.70;6.27;;;;;;;21.60;67.49;98741.59;261580;1092;115595;-69
2021/07/27 03:28:27;;;;;;;9.80;6.50;;;;;;;21.60;67.51;98741.59;261554;1092;119958;-69
2021/07/27 03:33:34;;;;;;;8.43;5.37;;;;;;;21.64;67.73;98720.42;261367;1092;115051;-69
2021/07/27 03:38:45;;;;;;;8.63;5.77;;;;;;;21.69;68.04;98718.02;261963;1092;114631;-69
2021/07/27 03:43:52;;;;;;;8.48;5.73;;;;;;;21.69;67.89;98729.69;262148;1093;114884;-70
2021/07/27 03:48:58;;;;;;;16.80;14.30;;;;;;;21.97;68.44;98716.55;262111;1092;114644;-66
2021/07/27 03:54:03;;;;;;;14.47;8.30;;;;;;;22.31;68.85;98706.42;261360;1092;115293;-72
2021/07/27 03:59:17;;;;;;;16.20;7.73;;;;;;;22.51;68.10;98706.81;261846;1092;114942;-71
2021/07/27 04:04:23;;;;;;;26.97;22.57;;;;;;;22.60;67.75;98713.88;261594;1093;114944;-71
2021/07/27 04:09:31;;;;;;;12.73;8.77;;;;;;;22.70;67.41;98710.94;261684;1092;114825;-70
2021/07/27 04:14:38;;;;;;;14.03;9.97;;;;;;;22.76;67.32;98707.47;262005;1092;115286;-68
2021/07/27 04:19:43;;;;;;;14.77;8.97;;;;;;;22.79;67.30;98713.41;261976;1093;117883;-69
2021/07/27 04:24:51;;;;;;;39.33;34.60;;;;;;;22.76;67.42;98711.06;262004;1092;114564;-71
2021/07/27 04:29:57;;;;;;;10.70;8.07;;;;;;;22.73;66.60;98700.56;261645;1092;114828;-70
2021/07/27 04:35:03;;;;;;;23.57;16.90;;;;;;;22.76;67.23;98688.48;263604;1092;114845;-74
2021/07/27 04:40:09;;;;;;;17.50;13.07;;;;;;;22.78;66.84;98695.42;262613;1092;114920;-72
2021/07/27 04:45:14;;;;;;;10.30;9.20;;;;;;;22.83;66.94;98684.04;262301;1093;115706;-73
2021/07/27 04:50:17;;;;;;;16.25;10.15;;;;;;;22.90;67.04;98688.55;263750;1092;115640;-72
2021/07/27 04:55:22;;;;;;;;;;;;;;;23.02;67.19;98682.70;263867;1093;114973;-73
2021/07/27 05:00:26;;;;;;;12.13;7.80;;;;;;;23.09;66.63;98694.52;263811;1092;101289;-72
2021/07/27 05:05:29;;;;;;;12.30;8.23;;;;;;;22.97;66.43;98687.86;263713;1092;116170;-73
2021/07/27 05:10:33;;;;;;;16.08;8.73;;;;;;;22.86;66.59;98676.38;263643;1093;116658;-71
2021/07/27 05:15:37;;;;;;;13.23;9.15;;;;;;;22.77;66.50;98663.89;263564;1092;115219;-72
2021/07/27 05:20:42;;;;;;;14.35;8.48;;;;;;;22.70;66.94;98665.66;262716;1092;114794;-71
2021/07/27 05:25:45;;;;;;;11.97;7.70;;;;;;;22.71;67.14;98650.22;262608;1093;115051;-71
2021/07/27 05:30:49;;;;;;;10.98;7.63;;;;;;;22.74;67.42;98642.55;263730;1091;115623;-77
2021/07/27 05:35:52;;;;;;;13.47;9.10;;;;;;;22.76;67.23;98656.80;263414;1093;114961;-67
2021/07/27 05:40:56;;;;;;;13.13;8.15;;;;;;;22.82;67.55;98671.48;263646;1093;115062;-70
2021/07/27 05:46:04;;;;;;;12.70;8.37;;;;;;;22.93;67.44;98670.23;263817;1093;115285;-70
2021/07/27 05:51:10;;;;;;;14.57;8.23;;;;;;;22.99;67.23;98670.34;263805;1092;115302;-74
2021/07/27 05:56:13;;;;;;;11.83;8.40;;;;;;;23.08;67.55;98690.96;263837;1093;115034;-70
2021/07/27 06:01:17;;;;;;;12.18;7.95;;;;;;;23.08;67.56;98703.70;263840;1092;115015;-68
2021/07/27 06:06:21;;;;;;;13.63;8.43;;;;;;;23.09;67.24;98708.09;263765;1093;114861;-70
2021/07/27 06:11:25;;;;;;;11.23;8.53;;;;;;;23.17;67.77;98704.48;263769;1092;115137;-71
2021/07/27 06:16:28;;;;;;;11.35;8.45;;;;;;;23.24;67.91;98710.86;263770;1093;117113;-71
2021/07/27 06:21:33;;;;;;;11.20;8.15;;;;;;;23.26;67.70;98717.77;263867;1091;115366;-71
2021/07/27 06:26:37;;;;;;;12.63;7.13;;;;;;;23.33;67.64;98743.16;263584;1092;115092;-70
2021/07/27 06:31:43;;;;;;;10.13;7.17;;;;;;;23.39;67.43;98755.16;263640;1091;115500;-70
2021/07/27 06:36:47;;;;;;;10.03;7.40;;;;;;;23.44;67.42;98746.45;263040;1093;115510;-72
2021/07/27 06:41:54;;;;;;;10.85;7.93;;;;;;;23.49;67.39;98747.59;263793;1091;115183;-74
2021/07/27 06:46:58;;;;;;;10.40;6.37;;;;;;;23.50;67.60;98767.45;263834;1092;115335;-74
2021/07/27 06:52:02;;;;;;;11.55;6.30;;;;;;;23.50;67.60;98779.16;263936;1092;115223;-73
2021/07/27 06:57:06;;;;;;;9.03;6.15;;;;;;;23.51;67.17;98775.44;262924;1091;114755;-74
2021/07/27 07:02:09;;;;;;;8.00;6.65;;;;;;;23.50;67.05;98778.31;263762;1093;115113;-73
2021/07/27 07:07:13;;;;;;;12.23;6.48;;;;;;;23.47;66.80;98787.70;262328;1092;115403;-70
2021/07/27 07:12:17;;;;;;;11.28;6.05;;;;;;;23.48;67.08;98807.55;263185;1093;115089;-72
2021/07/27 07:17:20;;;;;;;8.25;5.70;;;;;;;23.52;67.05;98822.45;263823;1092;115138;-71
2021/07/27 07:22:24;;;;;;;11.43;5.83;;;;;;;23.53;66.58;98821.41;263158;1092;114835;-71
2021/07/27 07:27:28;;;;;;;11.10;6.10;;;;;;;23.54;66.71;98825.84;263031;1091;115054;-71
2021/07/27 07:32:32;;;;;;;9.48;6.95;;;;;;;23.53;66.49;98832.28;263779;1092;114964;-70
2021/07/27 07:37:36;;;;;;;11.88;7.70;;;;;;;23.50;66.37;98840.80;263770;1093;115119;-71
2021/07/27 07:42:40;;;;;;;13.00;8.05;;;;;;;23.40;66.09;98845.63;263711;1092;115191;-72
2021/07/27 07:47:44;;;;;;;19.10;9.18;;;;;;;23.35;66.21;98852.46;263802;1093;115066;-72
2021/07/27 07:52:57;;;;;;;20.35;9.25;;;;;;;23.32;66.28;98847.39;263710;1093;115032;-72
2021/07/27 07:58:01;;;;;;;15.80;8.80;;;;;;;23.30;66.27;98841.31;263954;1090;114714;-71
2021/07/27 08:03:05;;;;;;;13.50;9.27;;;;;;;23.31;66.35;98842.99;262568;1093;115285;-71
2021/07/27 08:08:16;;;;;;;15.97;9.23;;;;;;;23.32;66.24;98839.24;261352;1093;117478;-71
2021/07/27 08:13:29;;;;;;;53.93;38.87;;;;;;;23.43;66.76;98837.97;261176;1092;114657;-71
2021/07/27 08:18:38;;;;;;;26.87;17.43;;;;;;;23.60;66.84;98844.94;261499;1092;114957;-72
2021/07/27 08:23:48;;;;;;;24.47;17.17;;;;;;;23.72;66.75;98852.70;261601;1092;114992;-70
2021/07/27 08:28:55;;;;;;;19.13;12.27;;;;;;;23.80;66.33;98847.18;263365;1093;115437;-71
2021/07/27 08:33:59;;;;;;;13.33;10.30;;;;;;;23.88;66.28;98860.71;263140;1092;115157;-70
2021/07/27 08:39:02;;;;;;;17.83;10.90;;;;;;;23.98;66.46;98847.70;263695;1092;115443;-72
2021/07/27 08:44:15;;;;;;;251.85;182.08;;;;;;;24.11;66.46;98859.78;263733;1090;115370;-71
2021/07/27 08:49:19;;;;;;;21.13;15.23;;;;;;;24.30;66.53;98868.23;262176;1092;115989;-73
2021/07/27 08:54:23;;;;;;;23.43;10.55;;;;;;;24.44;66.23;98873.91;261949;1092;115174;-71
2021/07/27 08:59:26;;;;;;;15.65;10.30;;;;;;;24.48;65.71;98873.33;261342;1092;116396;-71
2021/07/27 09:04:32;;;;;;;14.80;10.07;;;;;;;24.53;65.61;98880.94;262401;1092;114816;-71
2021/07/27 09:09:37;;;;;;;12.78;8.85;;;;;;;24.56;65.49;98872.41;263855;1093;116279;-71
2021/07/27 09:14:44;;;;;;;11.28;9.38;;;;;;;24.63;65.30;98883.38;263301;1093;114812;-70
2021/07/27 09:19:47;;;;;;;13.93;9.37;;;;;;;24.70;65.20;98896.03;263545;1093;114951;-72
2021/07/27 09:24:51;;;;;;;15.93;9.68;;;;;;;24.75;65.30;98879.96;261190;1092;116483;-68
2021/07/27 09:29:55;;;;;;;16.05;8.70;;;;;;;24.76;64.96;98894.41;263566;1093;115020;-72
2021/07/27 09:35:07;;;;;;;14.68;9.55;;;;;;;24.78;64.86;98892.35;263221;1092;116809;-70
2021/07/27 09:40:12;;;;;;;14.80;10.17;;;;;;;24.79;64.97;98889.42;263797;1091;116739;-71
2021/07/27 09:45:15;;;;;;;;;;;;;;;24.84;65.03;98899.77;263779;1092;115258;-71
2021/07/27 09:50:21;;;;;;;22.80;15.33;;;;;;;24.84;64.93;98902.48;263501;1092;102897;-72
2021/07/27 09:55:26;;;;;;;17.33;10.73;;;;;;;24.84;65.03;98907.09;263678;1092;116149;-72
2021/07/27 10:00:30;;;;;;;17.43;11.73;;;;;;;24.87;64.94;98906.72;263349;1093;115184;-70
2021/07/27 10:05:34;;;;;;;;;;;;;;;24.95;65.18;98903.88;263821;1092;115019;-70
2021/07/27 10:10:43;;;;;;;18.23;11.57;;;;;;;25.01;64.84;98909.41;263214;1092;102929;-71
2021/07/27 10:15:47;;;;;;;16.77;12.70;;;;;;;25.10;64.98;98912.88;263337;1093;115362;-70
2021/07/27 10:20:51;;;;;;;16.15;13.13;;;;;;;25.11;64.80;98909.13;263731;1092;115649;-72
2021/07/27 10:25:59;;;;;;;15.40;11.60;;;;;;;25.11;64.84;98902.81;263548;1092;115569;-71
2021/07/27 10:31:05;;;;;;;16.13;10.83;;;;;;;25.16;64.63;98900.38;263653;1093;115887;-71
2021/07/27 10:36:08;;;;;;;14.30;10.67;;;;;;;25.19;64.67;98903.56;263727;1091;115084;-70
2021/07/27 10:41:20;;;;;;;15.88;12.10;;;;;;;25.27;64.32;98897.14;263084;1092;115451;-71
2021/07/27 10:46:26;;;;;;;15.57;12.37;;;;;;;25.32;64.30;98893.86;263640;1092;115759;-69
2021/07/27 10:51:37;;;;;;;15.80;12.70;;;;;;;25.33;64.10;98885.48;263861;1092;115431;-72
2021/07/27 10:56:48;;;;;;;14.70;11.90;;;;;;;25.37;64.28;98899.55;263729;1092;116448;-72
2021/07/27 11:01:54;;;;;;;17.93;13.37;;;;;;;25.45;64.27;98904.89;263793;1090;114992;-71
2021/07/27 11:07:11;;;;;;;14.17;11.40;;;;;;;25.53;64.35;98885.67;263592;1093;117211;-72
2021/07/27 11:12:36;;;;;;;17.37;12.90;;;;;;;25.68;63.48;98893.80;263788;1093;115703;-70
2021/07/27 11:18:00;;;;;;;14.30;12.33;;;;;;;25.82;63.95;98901.09;263685;1090;115271;-70
2021/07/27 11:23:06;;;;;;;15.68;11.23;;;;;;;25.90;63.50;98879.12;263295;1092;114941;-71
2021/07/27 11:28:12;;;;;;;15.87;11.00;;;;;;;26.03;63.56;98856.56;263456;1091;116150;-74
2021/07/27 11:33:22;;;;;;;16.27;11.57;;;;;;;26.27;63.82;98843.50;263711;1092;114916;-70
2021/07/27 11:38:31;;;;;;;15.83;12.00;;;;;;;26.53;62.83;98842.81;263245;1092;115108;-70
2021/07/27 11:43:37;;;;;;;14.43;12.17;;;;;;;26.68;62.85;98840.80;263666;1092;116286;-73
2021/07/27 11:48:45;;;;;;;16.77;11.90;;;;;;;26.93;63.18;98842.97;263374;1093;114979;-70
2021/07/27 11:53:54;;;;;;;14.90;11.40;;;;;;;27.25;62.87;98841.42;263733;1092;115745;-70
2021/07/27 11:59:06;;;;;;;13.57;12.03;;;;;;;27.56;62.11;98851.77;263463;1092;117896;-70
2021/07/27 12:04:10;;;;;;;13.43;12.03;;;;;;;27.85;62.27;98846.95;263853;1093;114855;-69
2021/07/27 12:09:15;;;;;;;13.43;11.17;;;;;;;28.06;61.30;98844.00;263736;1093;115511;-70
2021/07/27 12:14:19;;;;;;;14.10;11.10;;;;;;;28.17;60.60;98846.08;263052;1093;115727;-70
2021/07/27 12:19:23;;;;;;;11.13;9.93;;;;;;;28.32;60.29;98844.98;263202;1092;115680;-69
2021/07/27 12:24:27;;;;;;;12.95;9.98;;;;;;;28.48;59.61;98839.92;263580;1093;115100;-68
2021/07/27 12:29:31;;;;;;;16.45;10.23;;;;;;;28.66;59.43;98832.90;263627;1093;115112;-69
2021/07/27 12:34:35;;;;;;;12.07;9.93;;;;;;;28.83;58.76;98814.91;263446;1093;114754;-70
2021/07/27 12:39:39;;;;;;;11.20;10.08;;;;;;;28.93;58.30;98812.53;263516;1092;115075;-69
2021/07/27 12:44:42;;;;;;;;;;;;;;;29.00;57.88;98807.88;263789;1093;115786;-72
2021/07/27 12:49:46;;;;;;;10.40;9.33;;;;;;;29.06;57.58;98810.82;263677;1092;102062;-75
2021/07/27 12:54:49;;;;;;;10.73;9.68;;;;;;;29.21;57.54;98806.72;263725;1092;116189;-71
2021/07/27 12:59:53;;;;;;;12.03;9.38;;;;;;;29.40;57.24;98796.66;263671;1092;115306;-68
2021/07/27 13:04:56;;;;;;;15.38;9.33;;;;;;;29.64;56.88;98805.15;263685;1092;115329;-71
2021/07/27 13:10:00;;;;;;;12.18;8.03;;;;;;;29.90;56.10;98801.34;263753;1093;114928;-72
2021/07/27 13:15:05;;;;;;;11.63;8.00;;;;;;;30.08;55.39;98800.52;263388;1092;114811;-71
2021/07/27 13:20:09;;;;;;;9.13;7.97;;;;;;;30.28;55.45;98819.55;263687;1093;115275;-71
2021/07/27 13:25:16;;;;;;;8.07;7.27;;;;;;;30.48;54.71;98811.92;263759;1092;116519;-68
2021/07/27 13:30:19;;;;;;;9.98;7.90;;;;;;;30.71;54.64;98789.24;263712;1093;116045;-70
2021/07/27 13:35:23;;;;;;;9.60;6.63;;;;;;;30.96;53.64;98804.79;263667;1092;114749;-67
2021/07/27 13:40:26;;;;;;;;;;;;;;;31.12;52.36;98812.39;263618;1092;114855;-70
2021/07/27 13:45:33;;;;;;;10.43;6.47;;;;;;;31.18;52.20;98807.84;263907;1093;101907;-69
2021/07/27 13:50:37;;;;;;;7.97;6.40;;;;;;;31.28;51.26;98821.86;263675;1091;115413;-69
2021/07/27 13:55:41;;;;;;;7.67;6.87;;;;;;;31.36;51.02;98813.32;263534;1092;114712;-70
2021/07/27 14:00:44;;;;;;;7.53;6.73;;;;;;;31.46;50.46;98808.08;263745;1092;115404;-74
2021/07/27 14:05:51;;;;;;;8.93;6.50;;;;;;;31.54;50.52;98801.39;263725;1092;114857;-72
2021/07/27 14:10:54;;;;;;;9.30;7.07;;;;;;;31.65;50.12;98785.97;263680;1092;115395;-70
2021/07/27 14:15:58;;;;;;;9.63;6.03;;;;;;;31.73;50.22;98774.63;263573;1092;115503;-67
2021/07/27 14:21:05;;;;;;;9.03;5.77;;;;;;;31.74;49.27;98766.11;263762;1091;115653;-70
2021/07/27 14:26:09;;;;;;;10.37;6.70;;;;;;;31.76;49.17;98758.47;263700;1092;115421;-68
2021/07/27 14:31:13;;;;;;;12.73;7.00;;;;;;;31.72;48.97;98765.50;263177;1092;114726;-72
2021/07/27 14:36:16;;;;;;;15.17;7.00;;;;;;;31.64;49.17;98767.79;263250;1091;116298;-67
2021/07/27 14:41:20;;;;;;;;;;;;;;;31.51;48.50;98771.59;263728;1092;115186;-68
2021/07/27 14:46:23;;;;;;;7.70;6.57;;;;;;;31.33;48.60;98764.28;263898;1093;101844;-67
2021/07/27 14:51:27;;;;;;;8.93;6.30;;;;;;;31.13;48.78;98770.06;263772;1092;114884;-69
2021/07/27 14:56:34;;;;;;;;;;;;;;;30.92;48.83;98754.11;263809;1092;115017;-70
2021/07/27 15:01:38;;;;;;;10.47;6.97;;;;;;;30.67;48.92;98748.70;263504;1092;102142;-70
2021/07/27 15:06:42;;;;;;;;;;;;;;;30.43;48.51;98751.34;263171;1093;115277;-73
2021/07/27 15:11:45;;;;;;;187.33;164.47;;;;;;;30.15;48.50;98743.63;263023;1092;102997;-70
2021/07/27 15:16:49;;;;;;;10.33;8.83;;;;;;;29.94;48.59;98753.99;262976;1093;115425;-72
2021/07/27 15:21:53;;;;;;;37.45;33.60;;;;;;;29.75;48.91;98759.67;263738;1092;114810;-74
2021/07/27 15:26:56;;;;;;;;;;;;;;;29.59;48.95;98772.92;262999;1092;115056;-70
2021/07/27 15:32:08;;;;;;;23.43;20.13;;;;;;;29.44;48.92;98786.91;262013;1092;103189;-71
2021/07/27 15:37:16;;;;;;;7.57;6.50;;;;;;;29.33;48.94;98795.03;262125;1092;115966;-70
2021/07/27 15:42:22;;;;;;;9.13;6.70;;;;;;;29.21;49.11;98795.76;261758;1093;114789;-71
2021/07/27 15:47:41;;;;;;;6.97;6.30;;;;;;;29.14;49.09;98797.67;262142;1092;115719;-69
2021/07/27 15:52:48;;;;;;;36.90;31.40;;;;;;;29.06;49.09;98789.73;261600;1091;114435;-70
2021/07/27 15:57:57;;;;;;;16.27;12.90;;;;;;;28.98;49.37;98788.06;261953;1092;115238;-70
2021/07/27 16:03:10;;;;;;;10.53;7.07;;;;;;;28.90;49.42;98788.31;261926;1092;116121;-69
2021/07/27 16:08:16;;;;;;;11.90;7.10;;;;;;;28.84;49.50;98793.83;262260;1092;114903;-71
2021/07/27 16:13:23;;;;;;;13.50;8.10;;;;;;;28.81;49.46;98780.59;262036;1092;114569;-71
2021/07/27 16:18:31;;;;;;;15.70;6.93;;;;;;;28.73;49.64;98779.77;261662;1092;114940;-71
2021/07/27 16:23:47;;;;;;;13.53;7.90;;;;;;;28.67;49.77;98779.80;261933;1092;116565;-70
2021/07/27 16:28:51;;;;;;;105.30;91.30;;;;;;;28.58;49.86;98786.60;261946;1092;114714;-70
2021/07/27 16:33:59;;;;;;;37.03;24.73;;;;;;;28.52;49.64;98774.61;261853;1092;115485;-70
2021/07/27 16:39:12;;;;;;;15.70;11.30;;;;;;;28.47;49.73;98780.75;262148;1093;115263;-68
2021/07/27 16:44:20;;;;;;;15.53;12.13;;;;;;;28.42;49.85;98779.70;261675;1092;115101;-69
2021/07/27 16:49:31;;;;;;;145.63;118.93;;;;;;;28.37;49.75;98774.86;261771;1092;115041;-69
2021/07/27 16:54:39;;;;;;;27.47;19.70;;;;;;;28.34;49.86;98778.03;261851;1092;115596;-70
2021/07/27 16:59:56;;;;;;;16.03;10.10;;;;;;;28.29;49.79;98775.95;261604;1092;115695;-69
2021/07/27 17:05:06;;;;;;;13.13;8.53;;;;;;;28.26;49.63;98783.72;261858;1090;116566;-69
2021/07/27 17:10:16;;;;;;;16.10;9.80;;;;;;;28.22;50.10;98782.48;261696;1092;115074;-71
2021/07/27 17:15:27;;;;;;;37.17;21.77;;;;;;;28.14;50.15;98786.30;261867;1092;115086;-68
2021/07/27 17:20:34;;;;;;;39.27;19.50;;;;;;;28.08;50.35;98780.84;261615;1093;114654;-70
2021/07/27 17:25:40;;;;;;;32.25;15.63;;;;;;;27.96;50.42;98773.30;261951;1090;114993;-69
2021/07/27 17:30:51;;;;;;;41.40;24.63;;;;;;;27.81;50.90;98781.72;261653;1091;114829;-68
2021/07/27 17:35:57;;;;;;;15.90;8.65;;;;;;;27.68;51.24;98781.70;261554;1093;114982;-70
2021/07/27 17:41:02;;;;;;;23.95;11.60;;;;;;;27.55;51.46;98793.52;261815;1091;114897;-69
2021/07/27 17:46:09;;;;;;;13.27;9.40;;;;;;;27.45;51.68;98782.16;261923;1093;114889;-69
2021/07/27 17:51:15;;;;;;;24.47;11.47;;;;;;;27.37;51.72;98790.55;261779;1091;114741;-71
2021/07/27 17:56:24;;;;;;;59.60;44.73;;;;;;;27.33;52.37;98794.75;261840;1091;115364;-71
2021/07/27 18:01:30;;;;;;;29.93;22.57;;;;;;;27.30;51.90;98789.70;261775;1092;115302;-73
2021/07/27 18:06:48;;;;;;;25.68;14.83;;;;;;;27.17;52.65;98789.69;261551;1093;115522;-69
2021/07/27 18:11:59;;;;;;;16.13;8.10;;;;;;;26.99;52.90;98788.37;261574;1093;115018;-71
2021/07/27 18:17:05;;;;;;;12.00;6.90;;;;;;;26.83;53.16;98794.20;261989;1092;114587;-71
2021/07/27 18:22:22;;;;;;;16.93;9.57;;;;;;;26.69;53.22;98790.59;261747;1092;115072;-70
2021/07/27 18:27:27;;;;;;;13.83;7.97;;;;;;;26.56;53.96;98785.95;261495;1093;114647;-71
2021/07/27 18:32:37;;;;;;;10.50;7.93;;;;;;;26.45;54.25;98789.21;261685;1093;115189;-71
2021/07/27 18:37:44;;;;;;;11.00;8.43;;;;;;;26.34;54.58;98790.64;262057;1091;114686;-70
2021/07/27 18:42:51;;;;;;;15.03;8.30;;;;;;;26.23;54.90;98788.49;261783;1093;114823;-69
2021/07/27 18:48:01;;;;;;;15.73;8.87;;;;;;;26.12;55.07;98797.22;262266;1092;114757;-69
2021/07/27 18:53:17;;;;;;;12.80;8.07;;;;;;;26.00;55.58;98799.69;261575;1093;114497;-71
2021/07/27 18:58:23;;;;;;;17.80;9.40;;;;;;;25.89;55.72;98805.70;262226;1091;115035;-71
2021/07/27 19:03:34;;;;;;;14.13;9.07;;;;;;;25.80;56.63;98810.45;261459;1093;115622;-72
2021/07/27 19:08:45;;;;;;;16.63;9.53;;;;;;;25.71;56.71;98814.33;261469;1092;116119;-71
2021/07/27 19:13:51;;;;;;;17.07;10.00;;;;;;;25.62;57.10;98818.27;261850;1093;114354;-70
2021/07/27 19:18:58;;;;;;;16.83;9.50;;;;;;;25.52;57.29;98824.05;262075;1092;115374;-70
2021/07/27 19:24:07;;;;;;;16.27;9.43;;;;;;;25.43;57.41;98817.03;262991;1092;115561;-72
2021/07/27 19:29:14;;;;;;;13.80;9.30;;;;;;;25.33;57.68;98819.25;263839;1092;114838;-70
2021/07/27 19:34:17;;;;;;;17.28;8.90;;;;;;;25.23;57.84;98828.58;263737;1093;114871;-69
2021/07/27 19:39:21;;;;;;;14.30;8.08;;;;;;;25.20;58.14;98817.23;263779;1092;115526;-70
2021/07/27 19:44:37;;;;;;;12.70;8.70;;;;;;;25.16;58.38;98816.78;263747;1093;115746;-69
2021/07/27 19:49:45;;;;;;;12.90;8.70;;;;;;;25.13;58.17;98819.89;261364;1093;115173;-69
2021/07/27 19:55:00;;;;;;;15.27;9.60;;;;;;;25.03;58.60;98811.16;261714;1092;114751;-70
2021/07/27 20:00:10;;;;;;;17.00;9.17;;;;;;;24.94;58.75;98825.95;262003;1093;115168;-69
2021/07/27 20:05:20;;;;;;;15.45;9.05;;;;;;;24.84;59.13;98830.88;261704;1092;115209;-71
2021/07/27 20:10:28;;;;;;;13.53;9.47;;;;;;;24.70;59.58;98825.27;261956;1091;115495;-71
2021/07/27 20:15:34;;;;;;;13.27;8.40;;;;;;;24.59;59.68;98822.17;261911;1092;115238;-70
2021/07/27 20:20:39;;;;;;;12.80;8.30;;;;;;;24.52;59.96;98827.53;261724;1092;115445;-70
2021/07/27 20:25:55;;;;;;;17.47;9.50;;;;;;;24.49;60.33;98828.78;261797;1091;114617;-72
2021/07/27 20:31:03;;;;;;;17.53;9.73;;;;;;;24.45;60.61;98832.05;261691;1092;114872;-72
2021/07/27 20:36:10;;;;;;;15.53;10.17;;;;;;;24.39;60.73;98840.92;261807;1092;115418;-71
2021/07/27 20:41:16;;;;;;;16.40;10.00;;;;;;;24.28;60.92;98845.81;261743;1092;114790;-68
2021/07/27 20:46:20;;;;;;;14.00;9.33;;;;;;;24.21;61.21;98858.47;261878;1093;115181;-70
2021/07/27 20:51:46;;;;;;;13.53;9.35;;;;;;;24.13;61.40;98864.02;261717;1092;115486;-70
2021/07/27 20:56:52;;;;;;;16.60;10.57;;;;;;;24.07;61.61;98864.75;261441;1092;114842;-70
2021/07/27 21:02:00;;;;;;;19.20;10.63;;;;;;;24.03;61.72;98866.16;261680;1092;115327;-71
2021/07/27 21:07:07;;;;;;;20.90;10.80;;;;;;;23.97;61.85;98861.45;261989;1092;115223;-72
2021/07/27 21:12:16;;;;;;;15.00;10.37;;;;;;;23.91;61.88;98870.34;261518;1093;115708;-72
2021/07/27 21:17:20;;;;;;;14.83;10.03;;;;;;;23.82;62.21;98867.72;262096;1092;116671;-71
2021/07/27 21:22:27;;;;;;;14.27;9.83;;;;;;;23.76;62.22;98876.60;261623;1092;115132;-72
2021/07/27 21:27:31;;;;;;;15.33;9.73;;;;;;;23.73;62.53;98878.84;263740;1092;115658;-73
2021/07/27 21:32:36;;;;;;;17.90;10.10;;;;;;;23.68;62.54;98876.69;263778;1093;115249;-72
2021/07/27 21:37:40;;;;;;;16.03;11.23;;;;;;;23.61;62.56;98878.42;262750;1092;115141;-72
2021/07/27 21:42:44;;;;;;;18.93;11.18;;;;;;;23.53;62.83;98879.30;261154;1092;114838;-72
2021/07/27 21:47:47;;;;;;;17.58;10.93;;;;;;;23.47;63.01;98877.34;263606;1092;115857;-69
2021/07/27 21:52:51;;;;;;;15.90;9.93;;;;;;;23.42;63.00;98885.17;262906;1093;114916;-75
2021/07/27 21:57:55;;;;;;;18.20;11.07;;;;;;;23.41;63.49;98888.08;263795;1093;114646;-71
2021/07/27 22:02:59;;;;;;;18.95;10.98;;;;;;;23.38;63.34;98889.28;263234;1090;116426;-71
2021/07/27 22:08:03;;;;;;;14.55;11.63;;;;;;;23.30;63.59;98892.91;263837;1090;115598;-71
2021/07/27 22:13:09;;;;;;;15.93;11.30;;;;;;;23.24;63.08;98892.78;263709;1092;114819;-71
2021/07/27 22:18:14;;;;;;;21.37;11.17;;;;;;;23.19;63.77;98878.89;263373;1091;115293;-72
2021/07/27 22:23:29;;;;;;;13.58;9.80;;;;;;;23.14;63.67;98890.30;261867;1091;114944;-69
2021/07/27 22:28:45;;;;;;;17.47;11.13;;;;;;;23.10;63.89;98880.83;261758;1092;115117;-70
2021/07/27 22:33:54;;;;;;;13.90;10.37;;;;;;;23.02;63.78;98881.70;261438;1092;114434;-70
2021/07/27 22:39:00;;;;;;;13.57;10.30;;;;;;;22.99;64.28;98873.06;261793;1092;114763;-70
2021/07/27 22:44:06;;;;;;;16.70;10.60;;;;;;;22.94;64.14;98867.34;261675;1092;115206;-71
2021/07/27 22:49:14;;;;;;;15.20;10.30;;;;;;;22.86;64.40;98860.04;261543;1092;116478;-72
2021/07/27 22:54:22;;;;;;;12.77;9.57;;;;;;;22.83;64.35;98857.71;261425;1092;114744;-72
2021/07/27 22:59:30;;;;;;;20.70;10.40;;;;;;;22.80;64.40;98858.06;261715;1092;115037;-71
2021/07/27 23:04:37;;;;;;;16.70;11.07;;;;;;;22.74;64.43;98851.47;261795;1092;115186;-69
2021/07/27 23:09:47;;;;;;;17.73;10.27;;;;;;;22.66;64.54;98846.94;261381;1092;115882;-68
2021/07/27 23:14:53;;;;;;;15.00;9.77;;;;;;;22.57;64.49;98849.86;261848;1092;115073;-70
2021/07/27 23:20:05;;;;;;;13.13;9.40;;;;;;;22.47;64.36;98839.22;261783;1093;114659;-71
2021/07/27 23:25:30;;;;;;;16.97;9.93;;;;;;;22.41;64.21;98823.64;262327;1092;116095;-74
2021/07/27 23:30:38;;;;;;;15.20;10.10;;;;;;;22.37;64.52;98816.89;263776;1093;115210;-75
2021/07/27 23:35:42;;;;;;;13.57;10.43;;;;;;;22.34;64.81;98812.66;262905;1093;115440;-70
2021/07/27 23:40:46;;;;;;;15.15;10.05;;;;;;;22.29;64.53;98817.78;263835;1092;115384;-72